createdAt,value
2019-05-18T00:00:47.800Z,98260.69
2019-05-18T00:01:56.971Z,98255.51
2019-05-18T00:03:05.349Z,98252.00
2019-05-18T00:04:14.178Z,98248.52
2019-05-18T00:05:22.284Z,98252.53
2019-05-18T00:06:31.196Z,98248.66
2019-05-18T00:07:39.010Z,98249.80
2019-05-18T00:08:47.697Z,98252.67
2019-05-18T00:09:55.690Z,98250.83
2019-05-18T00:11:04.613Z,98252.50
2019-05-18T00:12:12.491Z,98255.84
2019-05-18T00:13:21.308Z,98252.33
2019-05-18T00:14:29.411Z,98265.53
2019-05-18T00:15:38.322Z,98262.36
2019-05-18T00:16:46.244Z,98262.49
2019-05-18T00:17:55.046Z,98263.16
2019-05-18T00:19:02.999Z,98262.83
2019-05-18T00:20:13.288Z,98262.29
2019-05-18T00:21:21.169Z,98262.79
2019-05-18T00:22:29.267Z,98257.78
2019-05-18T00:23:37.118Z,98256.94
2019-05-18T00:24:45.885Z,98250.72
2019-05-18T00:25:53.957Z,98247.68
2019-05-18T00:27:03.086Z,98244.17
2019-05-18T00:28:13.194Z,98243.03
2019-05-18T00:29:21.835Z,98247.38
2019-05-18T00:30:29.932Z,98244.20
2019-05-18T00:31:39.065Z,98244.05
2019-05-18T00:32:46.936Z,98246.72
2019-05-18T00:33:55.754Z,98248.09
2019-05-18T00:35:04.194Z,98246.38
2019-05-18T00:36:12.937Z,98248.55
2019-05-18T00:37:20.791Z,98245.84
2019-05-18T00:38:29.675Z,98247.68
2019-05-18T00:39:37.758Z,98245.51
2019-05-18T00:40:46.493Z,98248.64
2019-05-18T00:41:54.267Z,98248.81
2019-05-18T00:43:02.597Z,98251.34
2019-05-18T00:44:10.771Z,98247.18
2019-05-18T00:45:19.671Z,98244.55
2019-05-18T00:46:27.830Z,98251.73
2019-05-18T00:47:41.423Z,98250.55
2019-05-18T00:48:46.358Z,98261.38
2019-05-18T00:49:55.276Z,98264.05
2019-05-18T00:51:03.170Z,98256.03
2019-05-18T00:52:12.105Z,98261.21
2019-05-18T00:53:20.176Z,98256.98
2019-05-18T00:54:28.988Z,98251.27
2019-05-18T00:55:37.092Z,98252.66
2019-05-18T00:56:45.889Z,98247.97
2019-05-18T00:57:53.898Z,98241.63
2019-05-18T00:59:02.913Z,98246.77
2019-05-18T01:00:11.693Z,98244.00
2019-05-18T01:01:20.771Z,98243.20
2019-05-18T01:02:28.946Z,98249.77
2019-05-18T01:03:38.117Z,98248.27
2019-05-18T01:04:46.259Z,98249.56
2019-05-18T01:05:55.015Z,98246.05
2019-05-18T01:07:02.802Z,98242.67
2019-05-18T01:08:12.027Z,98238.66
2019-05-18T01:09:20.314Z,98241.88
2019-05-18T01:10:29.233Z,98242.88
2019-05-18T01:11:37.338Z,98245.34
2019-05-18T01:12:45.870Z,98246.17
2019-05-18T01:13:53.790Z,98244.34
2019-05-18T01:15:03.137Z,98245.50
2019-05-18T01:16:11.255Z,98245.00
2019-05-18T01:17:19.509Z,98240.83
2019-05-18T01:18:27.709Z,98240.50
2019-05-18T01:19:36.471Z,98238.20
2019-05-18T01:20:44.891Z,98242.05
2019-05-18T01:21:53.853Z,98242.20
2019-05-18T01:23:01.953Z,98238.53
2019-05-18T01:24:10.705Z,98238.36
2019-05-18T01:25:18.758Z,98237.53
2019-05-18T01:26:27.769Z,98236.70
2019-05-18T01:27:35.803Z,98237.77
2019-05-18T01:28:44.523Z,98231.55
2019-05-18T01:29:53.898Z,98240.05
2019-05-18T01:31:02.436Z,98235.34
2019-05-18T01:32:10.660Z,98236.39
2019-05-18T01:33:19.042Z,98235.77
2019-05-18T01:34:27.099Z,98232.14
2019-05-18T01:35:36.008Z,98234.27
2019-05-18T01:36:44.255Z,98237.06
2019-05-18T01:37:52.569Z,98243.12
2019-05-18T01:39:00.831Z,98238.27
2019-05-18T01:40:09.938Z,98237.44
2019-05-18T01:41:17.964Z,98235.77
2019-05-18T01:42:26.982Z,98236.98
2019-05-18T01:43:34.792Z,98235.86
2019-05-18T01:44:43.666Z,98232.98
2019-05-18T01:45:51.752Z,98229.97
2019-05-18T01:47:00.689Z,98231.09
2019-05-18T01:48:13.691Z,98229.83
2019-05-18T01:49:19.173Z,98232.84
2019-05-18T01:50:27.247Z,98237.00
2019-05-18T01:51:35.961Z,98234.62
2019-05-18T01:52:43.865Z,98241.79
2019-05-18T01:53:52.605Z,98237.96
2019-05-18T01:55:00.499Z,98241.13
2019-05-18T01:56:09.275Z,98246.23
2019-05-18T01:57:17.177Z,98244.91
2019-05-18T01:58:25.782Z,98241.08
2019-05-18T01:59:33.858Z,98236.91
2019-05-18T02:00:42.608Z,98235.73
2019-05-18T02:01:51.513Z,98237.41
2019-05-18T02:03:00.835Z,98237.56
2019-05-18T02:04:08.930Z,98235.22
2019-05-18T02:05:17.668Z,98237.91
2019-05-18T02:06:25.771Z,98247.86
2019-05-18T02:07:34.189Z,98244.42
2019-05-18T02:08:42.136Z,98253.25
2019-05-18T02:09:51.447Z,98249.80
2019-05-18T02:10:59.382Z,98250.97
2019-05-18T02:12:08.160Z,98248.52
2019-05-18T02:13:16.019Z,98248.70
2019-05-18T02:14:24.838Z,98243.20
2019-05-18T02:15:32.865Z,98240.53
2019-05-18T02:16:41.674Z,98240.73
2019-05-18T02:17:49.600Z,98245.19
2019-05-18T02:18:58.344Z,98241.63
2019-05-18T02:20:07.484Z,98243.97
2019-05-18T02:21:16.362Z,98242.68
2019-05-18T02:22:24.569Z,98240.84
2019-05-18T02:23:33.518Z,98235.34
2019-05-18T02:24:41.557Z,98233.84
2019-05-18T02:25:50.135Z,98235.28
2019-05-18T02:26:58.359Z,98241.01
2019-05-18T02:28:07.575Z,98239.52
2019-05-18T02:29:15.594Z,98237.52
2019-05-18T02:30:24.357Z,98237.52
2019-05-18T02:31:32.372Z,98237.00
2019-05-18T02:32:41.201Z,98241.62
2019-05-18T02:33:48.899Z,98237.05
2019-05-18T02:34:57.707Z,98236.38
2019-05-18T02:36:05.809Z,98234.43
2019-05-18T02:37:14.626Z,98227.42
2019-05-18T02:38:22.892Z,98232.75
2019-05-18T02:39:31.808Z,98222.69
2019-05-18T02:40:39.728Z,98221.25
2019-05-18T02:41:48.386Z,98224.75
2019-05-18T02:42:56.530Z,98222.48
2019-05-18T02:44:05.943Z,98222.81
2019-05-18T02:45:14.813Z,98229.20
2019-05-18T02:46:23.767Z,98230.87
2019-05-18T02:47:32.045Z,98232.16
2019-05-18T02:48:49.279Z,98238.66
2019-05-18T02:49:50.807Z,98240.50
2019-05-18T02:50:59.841Z,98241.58
2019-05-18T02:52:07.942Z,98241.41
2019-05-18T02:53:17.153Z,98238.92
2019-05-18T02:54:25.275Z,98241.08
2019-05-18T02:55:34.221Z,98231.76
2019-05-18T02:56:42.706Z,98240.13
2019-05-18T02:57:51.516Z,98234.14
2019-05-18T02:58:59.703Z,98230.64
2019-05-18T03:00:13.429Z,98234.14
2019-05-18T03:01:21.635Z,98224.47
2019-05-18T03:02:30.541Z,98221.80
2019-05-18T03:03:38.431Z,98219.63
2019-05-18T03:04:47.444Z,98218.79
2019-05-18T03:05:55.759Z,98215.63
2019-05-18T03:07:04.916Z,98213.73
2019-05-18T03:08:12.855Z,98217.92
2019-05-18T03:09:21.695Z,98222.06
2019-05-18T03:10:30.257Z,98225.33
2019-05-18T03:11:39.054Z,98221.85
2019-05-18T03:12:47.089Z,98220.16
2019-05-18T03:13:56.029Z,98227.34
2019-05-18T03:15:04.765Z,98228.73
2019-05-18T03:16:13.677Z,98231.16
2019-05-18T03:17:21.687Z,98235.66
2019-05-18T03:18:30.624Z,98228.28
2019-05-18T03:19:38.451Z,98233.49
2019-05-18T03:20:47.268Z,98234.48
2019-05-18T03:21:55.362Z,98231.06
2019-05-18T03:23:04.148Z,98228.73
2019-05-18T03:24:12.070Z,98232.08
2019-05-18T03:25:20.803Z,98234.41
2019-05-18T03:26:29.078Z,98228.08
2019-05-18T03:27:37.997Z,98230.56
2019-05-18T03:28:46.198Z,98225.36
2019-05-18T03:29:54.822Z,98228.00
2019-05-18T03:31:02.804Z,98228.28
2019-05-18T03:32:11.480Z,98237.00
2019-05-18T03:33:19.622Z,98238.33
2019-05-18T03:34:28.013Z,98233.44
2019-05-18T03:35:36.714Z,98229.59
2019-05-18T03:36:45.711Z,98225.25
2019-05-18T03:37:53.582Z,98217.59
2019-05-18T03:39:02.344Z,98219.94
2019-05-18T03:40:10.751Z,98219.81
2019-05-18T03:41:19.268Z,98223.66
2019-05-18T03:42:27.269Z,98225.49
2019-05-18T03:43:35.902Z,98219.20
2019-05-18T03:44:43.815Z,98228.20
2019-05-18T03:45:52.431Z,98223.68
2019-05-18T03:47:00.507Z,98219.20
2019-05-18T03:48:09.237Z,98220.26
2019-05-18T03:49:27.198Z,98215.81
2019-05-18T03:50:27.362Z,98211.94
2019-05-18T03:51:35.352Z,98213.09
2019-05-18T03:52:43.990Z,98218.11
2019-05-18T03:53:51.808Z,98221.98
2019-05-18T03:55:01.084Z,98224.28
2019-05-18T03:56:08.987Z,98227.34
2019-05-18T03:57:17.659Z,98229.17
2019-05-18T03:58:25.724Z,98228.52
2019-05-18T03:59:34.745Z,98227.06
2019-05-18T04:00:43.251Z,98230.56
2019-05-18T04:01:51.916Z,98234.69
2019-05-18T04:03:00.467Z,98238.85
2019-05-18T04:04:09.386Z,98237.52
2019-05-18T04:05:17.477Z,98240.66
2019-05-18T04:06:26.300Z,98249.41
2019-05-18T04:07:34.242Z,98237.09
2019-05-18T04:08:43.042Z,98255.53
2019-05-18T04:09:51.081Z,98255.53
2019-05-18T04:11:00.007Z,98259.88
2019-05-18T04:12:07.996Z,98258.11
2019-05-18T04:13:16.912Z,98260.19
2019-05-18T04:14:25.141Z,98262.41
2019-05-18T04:15:33.982Z,98256.62
2019-05-18T04:16:42.031Z,98262.85
2019-05-18T04:17:50.841Z,98256.96
2019-05-18T04:18:58.982Z,98263.01
2019-05-18T04:20:11.214Z,98259.09
2019-05-18T04:21:19.056Z,98261.30
2019-05-18T04:22:28.043Z,98257.85
2019-05-18T04:23:36.213Z,98264.86
2019-05-18T04:24:44.845Z,98265.27
2019-05-18T04:25:52.981Z,98264.92
2019-05-18T04:27:01.635Z,98272.92
2019-05-18T04:28:09.441Z,98267.92
2019-05-18T04:29:18.157Z,98269.52
2019-05-18T04:30:26.372Z,98275.62
2019-05-18T04:31:35.371Z,98268.43
2019-05-18T04:32:43.302Z,98267.44
2019-05-18T04:33:51.887Z,98264.86
2019-05-18T04:34:59.989Z,98276.92
2019-05-18T04:36:08.910Z,98273.94
2019-05-18T04:37:16.916Z,98270.96
2019-05-18T04:38:25.923Z,98274.00
2019-05-18T04:39:33.770Z,98267.86
2019-05-18T04:40:42.725Z,98261.19
2019-05-18T04:41:50.718Z,98262.36
2019-05-18T04:42:59.323Z,98264.02
2019-05-18T04:44:07.433Z,98261.84
2019-05-18T04:45:16.541Z,98258.44
2019-05-18T04:46:24.595Z,98260.50
2019-05-18T04:47:33.370Z,98260.53
2019-05-18T04:48:41.150Z,98261.11
2019-05-18T04:50:04.445Z,98259.83
2019-05-18T04:50:59.714Z,98260.90
2019-05-18T04:52:08.411Z,98260.90
2019-05-18T04:53:16.599Z,98261.79
2019-05-18T04:54:24.736Z,98260.97
2019-05-18T04:55:32.829Z,98259.69
2019-05-18T04:56:43.078Z,98255.70
2019-05-18T04:57:51.018Z,98253.38
2019-05-18T04:58:59.853Z,98258.53
2019-05-18T05:00:10.337Z,98259.76
2019-05-18T05:01:19.349Z,98256.27
2019-05-18T05:02:27.401Z,98257.50
2019-05-18T05:03:36.439Z,98255.58
2019-05-18T05:04:44.431Z,98257.30
2019-05-18T05:05:53.332Z,98252.64
2019-05-18T05:07:01.228Z,98250.84
2019-05-18T05:08:10.048Z,98251.87
2019-05-18T05:09:18.460Z,98247.75
2019-05-18T05:10:27.156Z,98238.89
2019-05-18T05:11:35.384Z,98238.27
2019-05-18T05:12:43.874Z,98240.83
2019-05-18T05:13:51.698Z,98240.70
2019-05-18T05:15:00.582Z,98243.72
2019-05-18T05:16:08.555Z,98247.22
2019-05-18T05:17:17.199Z,98246.43
2019-05-18T05:18:25.156Z,98247.80
2019-05-18T05:19:34.867Z,98242.13
2019-05-18T05:20:42.733Z,98239.66
2019-05-18T05:21:51.461Z,98236.82
2019-05-18T05:22:59.593Z,98236.98
2019-05-18T05:24:08.313Z,98233.52
2019-05-18T05:25:16.357Z,98231.68
2019-05-18T05:26:25.217Z,98230.52
2019-05-18T05:27:33.109Z,98225.20
2019-05-18T05:28:41.822Z,98226.53
2019-05-18T05:29:50.021Z,98229.70
2019-05-18T05:30:58.951Z,98225.70
2019-05-18T05:32:06.851Z,98223.02
2019-05-18T05:33:15.949Z,98222.86
2019-05-18T05:34:24.171Z,98229.07
2019-05-18T05:35:32.965Z,98220.69
2019-05-18T05:36:41.277Z,98222.22
2019-05-18T05:37:49.851Z,98223.39
2019-05-18T05:38:58.011Z,98222.72
2019-05-18T05:40:10.166Z,98223.05
2019-05-18T05:41:18.624Z,98219.72
2019-05-18T05:42:27.524Z,98221.72
2019-05-18T05:43:35.685Z,98222.25
2019-05-18T05:44:44.502Z,98220.22
2019-05-18T05:45:52.603Z,98220.58
2019-05-18T05:47:01.453Z,98220.08
2019-05-18T05:48:09.957Z,98222.11
2019-05-18T05:49:18.698Z,98220.49
2019-05-18T05:50:35.261Z,98220.52
2019-05-18T05:51:37.486Z,98225.22
2019-05-18T05:52:45.833Z,98226.39
2019-05-18T05:53:54.859Z,98222.23
2019-05-18T05:55:02.902Z,98233.09
2019-05-18T05:56:12.039Z,98229.25
2019-05-18T05:57:20.160Z,98228.24
2019-05-18T05:58:29.294Z,98236.12
2019-05-18T05:59:37.586Z,98232.13
2019-05-18T06:00:46.456Z,98236.81
2019-05-18T06:02:39.049Z,98230.64
2019-05-18T06:03:48.280Z,98240.15
2019-05-18T06:04:56.463Z,98235.64
2019-05-18T06:06:05.432Z,98237.81
2019-05-18T06:07:13.772Z,98239.00
2019-05-18T06:08:23.196Z,98237.34
2019-05-18T06:09:31.401Z,98235.69
2019-05-18T06:10:40.615Z,98233.34
2019-05-18T06:11:48.815Z,98231.48
2019-05-18T06:12:57.836Z,98235.19
2019-05-18T06:14:06.233Z,98231.16
2019-05-18T06:15:15.424Z,98220.80
2019-05-18T06:16:23.447Z,98224.82
2019-05-18T06:17:32.489Z,98226.65
2019-05-18T06:18:40.780Z,98218.13
2019-05-18T06:19:49.730Z,98222.30
2019-05-18T06:20:57.731Z,98222.95
2019-05-18T06:22:06.520Z,98225.80
2019-05-18T06:23:14.701Z,98228.49
2019-05-18T06:24:23.427Z,98224.80
2019-05-18T06:25:34.219Z,98232.34
2019-05-18T06:26:41.468Z,98224.64
2019-05-18T06:27:49.754Z,98230.70
2019-05-18T06:28:58.566Z,98234.88
2019-05-18T06:30:09.553Z,98234.20
2019-05-18T06:31:18.455Z,98235.87
2019-05-18T06:32:26.469Z,98233.70
2019-05-18T06:33:35.324Z,98238.35
2019-05-18T06:34:43.557Z,98235.85
2019-05-18T06:35:52.472Z,98233.50
2019-05-18T06:37:00.684Z,98236.69
2019-05-18T06:38:09.500Z,98229.33
2019-05-18T06:39:17.795Z,98232.34
2019-05-18T06:40:26.435Z,98236.02
2019-05-18T06:41:34.776Z,98225.95
2019-05-18T06:42:43.605Z,98224.94
2019-05-18T06:43:51.796Z,98226.25
2019-05-18T06:45:00.522Z,98228.58
2019-05-18T06:46:08.725Z,98230.91
2019-05-18T06:47:17.141Z,98228.55
2019-05-18T06:48:25.799Z,98225.17
2019-05-18T06:49:34.646Z,98227.83
2019-05-18T06:50:43.910Z,98232.36
2019-05-18T06:51:53.201Z,98229.20
2019-05-18T06:53:01.424Z,98228.15
2019-05-18T06:54:10.162Z,98225.94
2019-05-18T06:55:18.369Z,98223.75
2019-05-18T06:56:27.598Z,98220.24
2019-05-18T06:57:36.210Z,98224.95
2019-05-18T06:58:45.399Z,98225.09
2019-05-18T06:59:53.799Z,98229.08
2019-05-18T07:01:02.890Z,98222.38
2019-05-18T07:02:11.115Z,98225.22
2019-05-18T07:03:20.313Z,98225.00
2019-05-18T07:04:28.337Z,98225.83
2019-05-18T07:05:37.126Z,98232.03
2019-05-18T07:06:45.174Z,98228.88
2019-05-18T07:07:54.328Z,98235.08
2019-05-18T07:09:02.651Z,98233.42
2019-05-18T07:10:12.230Z,98238.42
2019-05-18T07:11:20.679Z,98238.59
2019-05-18T07:12:29.500Z,98240.77
2019-05-18T07:13:37.798Z,98234.61
2019-05-18T07:14:49.080Z,98240.81
2019-05-18T07:15:57.070Z,98240.78
2019-05-18T07:17:05.865Z,98244.80
2019-05-18T07:18:13.953Z,98241.75
2019-05-18T07:19:22.904Z,98241.42
2019-05-18T07:20:30.963Z,98245.81
2019-05-18T07:21:40.100Z,98244.30
2019-05-18T07:22:48.525Z,98241.80
2019-05-18T07:23:57.425Z,98245.81
2019-05-18T07:25:08.435Z,98243.50
2019-05-18T07:26:17.314Z,98243.14
2019-05-18T07:27:25.364Z,98245.81
2019-05-18T07:28:34.840Z,98248.37
2019-05-18T07:29:42.928Z,98251.55
2019-05-18T07:30:51.632Z,98247.72
2019-05-18T07:31:59.596Z,98248.55
2019-05-18T07:33:08.429Z,98242.83
2019-05-18T07:34:16.574Z,98243.65
2019-05-18T07:35:25.172Z,98246.98
2019-05-18T07:36:33.363Z,98241.23
2019-05-18T07:37:42.142Z,98245.77
2019-05-18T07:38:50.173Z,98241.98
2019-05-18T07:39:59.048Z,98244.48
2019-05-18T07:41:07.171Z,98249.02
2019-05-18T07:42:15.917Z,98250.03
2019-05-18T07:43:24.299Z,98255.72
2019-05-18T07:44:33.081Z,98249.84
2019-05-18T07:45:41.459Z,98250.82
2019-05-18T07:46:50.531Z,98248.13
2019-05-18T07:47:58.648Z,98251.32
2019-05-18T07:49:07.360Z,98248.96
2019-05-18T07:50:15.731Z,98252.47
2019-05-18T07:51:36.303Z,98252.44
2019-05-18T07:52:34.690Z,98246.04
2019-05-18T07:53:43.489Z,98248.03
2019-05-18T07:54:51.421Z,98253.06
2019-05-18T07:56:00.031Z,98247.98
2019-05-18T07:57:07.950Z,98250.79
2019-05-18T07:58:16.723Z,98253.33
2019-05-18T07:59:25.140Z,98253.77
2019-05-18T08:00:33.718Z,98253.55
2019-05-18T08:01:41.694Z,98256.35
2019-05-18T08:02:50.576Z,98253.09
2019-05-18T08:03:59.110Z,98252.44
2019-05-18T08:05:10.829Z,98254.42
2019-05-18T08:06:18.988Z,98249.16
2019-05-18T08:07:28.004Z,98252.64
2019-05-18T08:08:36.354Z,98251.55
2019-05-18T08:09:45.070Z,98248.00
2019-05-18T08:10:53.102Z,98246.06
2019-05-18T08:12:01.986Z,98247.20
2019-05-18T08:13:10.170Z,98246.81
2019-05-18T08:14:19.090Z,98239.56
2019-05-18T08:15:27.299Z,98239.50
2019-05-18T08:16:35.701Z,98230.89
2019-05-18T08:17:43.810Z,98235.92
2019-05-18T08:18:52.769Z,98233.14
2019-05-18T08:20:01.138Z,98226.86
2019-05-18T08:21:10.005Z,98226.83
2019-05-18T08:22:18.022Z,98229.78
2019-05-18T08:23:26.745Z,98221.67
2019-05-18T08:24:34.626Z,98233.74
2019-05-18T08:25:43.418Z,98232.84
2019-05-18T08:26:51.849Z,98231.27
2019-05-18T08:28:02.355Z,98229.70
2019-05-18T08:29:10.591Z,98228.13
2019-05-18T08:30:19.725Z,98231.41
2019-05-18T08:31:27.809Z,98228.67
2019-05-18T08:32:36.729Z,98230.66
2019-05-18T08:33:44.731Z,98224.56
2019-05-18T08:34:53.561Z,98228.05
2019-05-18T08:36:01.963Z,98227.34
2019-05-18T08:37:11.257Z,98229.99
2019-05-18T08:38:20.192Z,98229.80
2019-05-18T08:39:29.464Z,98228.97
2019-05-18T08:40:37.625Z,98222.67
2019-05-18T08:41:48.871Z,98229.31
2019-05-18T08:42:58.219Z,98231.58
2019-05-18T08:44:08.307Z,98234.50
2019-05-18T08:45:17.572Z,98227.72
2019-05-18T08:46:26.497Z,98229.70
2019-05-18T08:47:34.577Z,98226.18
2019-05-18T08:48:43.360Z,98226.74
2019-05-18T08:49:51.703Z,98220.67
2019-05-18T08:51:00.514Z,98222.45
2019-05-18T08:52:08.960Z,98225.30
2019-05-18T08:53:17.716Z,98221.30
2019-05-18T08:54:26.611Z,98224.38
2019-05-18T08:55:34.986Z,98227.85
2019-05-18T08:56:43.317Z,98226.80
2019-05-18T08:57:52.476Z,98222.51
2019-05-18T08:59:00.470Z,98220.64
2019-05-18T09:00:10.931Z,98222.42
2019-05-18T09:01:19.164Z,98222.88
2019-05-18T09:02:27.936Z,98223.05
2019-05-18T09:03:35.933Z,98222.05
2019-05-18T09:04:44.867Z,98214.13
2019-05-18T09:05:54.374Z,98210.87
2019-05-18T09:07:03.085Z,98210.81
2019-05-18T09:08:11.383Z,98214.77
2019-05-18T09:09:20.109Z,98210.84
2019-05-18T09:10:28.215Z,98214.31
2019-05-18T09:11:37.088Z,98212.59
2019-05-18T09:12:45.330Z,98209.91
2019-05-18T09:13:54.231Z,98211.83
2019-05-18T09:15:02.253Z,98213.84
2019-05-18T09:16:11.134Z,98214.89
2019-05-18T09:17:19.081Z,98212.13
2019-05-18T09:18:27.854Z,98208.80
2019-05-18T09:19:35.891Z,98204.28
2019-05-18T09:20:44.879Z,98212.22
2019-05-18T09:21:53.283Z,98208.39
2019-05-18T09:23:01.492Z,98205.58
2019-05-18T09:24:09.610Z,98203.41
2019-05-18T09:25:18.644Z,98204.48
2019-05-18T09:26:26.798Z,98199.78
2019-05-18T09:27:35.580Z,98198.47
2019-05-18T09:28:43.577Z,98196.70
2019-05-18T09:29:52.446Z,98202.14
2019-05-18T09:31:00.616Z,98199.99
2019-05-18T09:32:09.574Z,98203.87
2019-05-18T09:33:17.610Z,98200.05
2019-05-18T09:34:26.582Z,98194.89
2019-05-18T09:35:35.212Z,98190.21
2019-05-18T09:36:43.982Z,98189.50
2019-05-18T09:37:52.045Z,98190.70
2019-05-18T09:39:01.093Z,98192.56
2019-05-18T09:40:09.845Z,98195.28
2019-05-18T09:41:18.703Z,98192.43
2019-05-18T09:42:26.698Z,98192.11
2019-05-18T09:43:35.491Z,98189.92
2019-05-18T09:44:43.687Z,98189.01
2019-05-18T09:45:53.280Z,98188.38
2019-05-18T09:47:01.304Z,98185.16
2019-05-18T09:48:10.004Z,98186.31
2019-05-18T09:49:18.269Z,98192.55
2019-05-18T09:50:27.267Z,98180.61
2019-05-18T09:51:35.365Z,98175.94
2019-05-18T09:52:45.946Z,98182.06
2019-05-18T09:53:54.073Z,98176.43
2019-05-18T09:55:02.837Z,98173.33
2019-05-18T09:56:11.042Z,98178.64
2019-05-18T09:57:19.905Z,98181.34
2019-05-18T09:58:28.041Z,98172.28
2019-05-18T09:59:36.772Z,98168.70
2019-05-18T10:00:44.851Z,98172.22
2019-05-18T10:01:53.917Z,98170.02
2019-05-18T10:03:01.979Z,98168.86
2019-05-18T10:04:10.976Z,98172.28
2019-05-18T10:05:19.253Z,98173.06
2019-05-18T10:06:31.269Z,98171.02
2019-05-18T10:07:38.315Z,98172.83
2019-05-18T10:08:46.961Z,98168.43
2019-05-18T10:09:55.577Z,98171.50
2019-05-18T10:11:04.177Z,98164.80
2019-05-18T10:12:11.971Z,98165.30
2019-05-18T10:13:20.773Z,98165.74
2019-05-18T10:14:28.941Z,98159.21
2019-05-18T10:15:37.701Z,98163.05
2019-05-18T10:16:45.787Z,98158.73
2019-05-18T10:17:54.391Z,98157.99
2019-05-18T10:19:02.594Z,98156.11
2019-05-18T10:20:11.834Z,98153.46
2019-05-18T10:21:19.913Z,98150.08
2019-05-18T10:22:28.706Z,98156.45
2019-05-18T10:23:36.726Z,98154.02
2019-05-18T10:24:45.635Z,98157.16
2019-05-18T10:25:53.839Z,98158.55
2019-05-18T10:27:02.868Z,98159.62
2019-05-18T10:28:10.858Z,98156.89
2019-05-18T10:29:19.043Z,98151.14
2019-05-18T10:30:27.359Z,98154.00
2019-05-18T10:31:36.163Z,98149.47
2019-05-18T10:32:44.356Z,98148.55
2019-05-18T10:33:53.133Z,98151.39
2019-05-18T10:35:01.374Z,98148.65
2019-05-18T10:36:11.759Z,98153.62
2019-05-18T10:37:20.029Z,98148.61
2019-05-18T10:38:28.721Z,98150.99
2019-05-18T10:39:38.732Z,98149.22
2019-05-18T10:40:47.078Z,98154.50
2019-05-18T10:41:54.934Z,98154.85
2019-05-18T10:43:03.976Z,98151.33
2019-05-18T10:44:11.984Z,98151.63
2019-05-18T10:45:21.186Z,98151.06
2019-05-18T10:46:29.261Z,98150.22
2019-05-18T10:47:38.338Z,98155.12
2019-05-18T10:48:46.642Z,98152.03
2019-05-18T10:49:55.760Z,98149.50
2019-05-18T10:51:05.623Z,98152.12
2019-05-18T10:52:14.168Z,98144.91
2019-05-18T10:53:28.727Z,98143.19
2019-05-18T10:54:32.341Z,98140.27
2019-05-18T10:55:40.520Z,98135.28
2019-05-18T10:56:49.482Z,98137.61
2019-05-18T10:57:58.536Z,98138.50
2019-05-18T10:59:07.584Z,98133.56
2019-05-18T11:00:16.472Z,98136.91
2019-05-18T11:01:25.144Z,98130.16
2019-05-18T11:02:33.618Z,98133.02
2019-05-18T11:03:42.649Z,98131.30
2019-05-18T11:04:50.985Z,98131.14
2019-05-18T11:06:00.130Z,98127.56
2019-05-18T11:07:08.311Z,98128.59
2019-05-18T11:08:17.186Z,98129.76
2019-05-18T11:09:25.677Z,98123.59
2019-05-18T11:10:34.603Z,98120.02
2019-05-18T11:11:42.772Z,98113.23
2019-05-18T11:12:51.867Z,98114.30
2019-05-18T11:14:00.220Z,98111.50
2019-05-18T11:15:10.713Z,98113.81
2019-05-18T11:16:18.769Z,98110.20
2019-05-18T11:17:27.576Z,98103.30
2019-05-18T11:18:36.180Z,98111.92
2019-05-18T11:19:45.258Z,98103.21
2019-05-18T11:20:53.526Z,98109.20
2019-05-18T11:22:02.627Z,98096.48
2019-05-18T11:23:11.014Z,98104.26
2019-05-18T11:24:20.240Z,98100.58
2019-05-18T11:25:28.267Z,98086.47
2019-05-18T11:26:36.964Z,98090.47
2019-05-18T11:27:44.764Z,98091.15
2019-05-18T11:28:54.015Z,98089.65
2019-05-18T11:30:02.366Z,98091.09
2019-05-18T11:31:11.498Z,98087.64
2019-05-18T11:32:19.589Z,98088.26
2019-05-18T11:33:28.409Z,98086.55
2019-05-18T11:34:36.601Z,98088.18
2019-05-18T11:35:45.525Z,98084.33
2019-05-18T11:36:53.856Z,98077.31
2019-05-18T11:38:02.577Z,98079.53
2019-05-18T11:39:10.768Z,98083.90
2019-05-18T11:40:20.034Z,98077.25
2019-05-18T11:41:27.957Z,98079.13
2019-05-18T11:42:36.903Z,98077.75
2019-05-18T11:43:44.972Z,98073.08
2019-05-18T11:44:53.710Z,98066.82
2019-05-18T11:46:01.908Z,98066.00
2019-05-18T11:47:10.796Z,98067.55
2019-05-18T11:48:19.238Z,98067.98
2019-05-18T11:49:29.151Z,98061.44
2019-05-18T11:50:37.712Z,98066.07
2019-05-18T11:51:47.005Z,98057.56
2019-05-18T11:52:55.251Z,98064.77
2019-05-18T11:54:04.197Z,98064.64
2019-05-18T11:55:12.412Z,98059.72
2019-05-18T11:56:21.087Z,98063.96
2019-05-18T11:57:29.185Z,98063.88
2019-05-18T11:58:37.848Z,98068.03
2019-05-18T11:59:45.864Z,98061.38
2019-05-18T12:00:54.749Z,98065.09
2019-05-18T12:02:03.294Z,98071.42
2019-05-18T12:03:12.101Z,98064.80
2019-05-18T12:04:20.328Z,98064.06
2019-05-18T12:05:29.010Z,98055.17
2019-05-18T12:06:37.009Z,98049.14
2019-05-18T12:07:48.399Z,98047.85
2019-05-18T12:08:58.583Z,98048.83
2019-05-18T12:10:12.400Z,98054.42
2019-05-18T12:11:20.687Z,98055.19
2019-05-18T12:12:29.502Z,98049.55
2019-05-18T12:13:37.537Z,98047.03
2019-05-18T12:14:46.345Z,98056.13
2019-05-18T12:15:54.289Z,98055.31
2019-05-18T12:17:03.479Z,98061.39
2019-05-18T12:18:11.630Z,98049.89
2019-05-18T12:19:20.371Z,98057.03
2019-05-18T12:20:28.738Z,98055.30
2019-05-18T12:21:37.596Z,98054.31
2019-05-18T12:22:45.752Z,98056.08
2019-05-18T12:23:54.506Z,98053.32
2019-05-18T12:25:02.665Z,98044.69
2019-05-18T12:26:11.521Z,98045.88
2019-05-18T12:27:19.701Z,98047.23
2019-05-18T12:28:31.083Z,98048.25
2019-05-18T12:29:37.920Z,98049.22
2019-05-18T12:30:46.573Z,98047.09
2019-05-18T12:31:54.683Z,98052.72
2019-05-18T12:33:03.682Z,98055.09
2019-05-18T12:34:11.969Z,98046.69
2019-05-18T12:35:20.844Z,98051.70
2019-05-18T12:36:28.872Z,98048.50
2019-05-18T12:37:38.296Z,98045.16
2019-05-18T12:38:46.614Z,98047.62
2019-05-18T12:39:56.173Z,98037.19
2019-05-18T12:41:04.620Z,98038.39
2019-05-18T12:42:13.747Z,98036.47
2019-05-18T12:43:22.069Z,98038.20
2019-05-18T12:44:31.530Z,98039.90
2019-05-18T12:45:39.630Z,98033.30
2019-05-18T12:46:48.751Z,98032.28
2019-05-18T12:47:56.954Z,98024.95
2019-05-18T12:49:06.547Z,98026.48
2019-05-18T12:50:16.380Z,98024.85
2019-05-18T12:51:25.199Z,98019.05
2019-05-18T12:52:33.210Z,98016.15
2019-05-18T12:53:41.902Z,98027.69
2019-05-18T12:54:49.858Z,98032.36
2019-05-18T12:55:58.845Z,98039.44
2019-05-18T12:57:07.016Z,98032.22
2019-05-18T12:58:15.891Z,98032.92
2019-05-18T12:59:24.331Z,98024.98
2019-05-18T13:00:33.324Z,98022.41
2019-05-18T13:01:41.345Z,98022.84
2019-05-18T13:02:50.264Z,98017.13
2019-05-18T13:03:58.475Z,98020.42
2019-05-18T13:05:09.120Z,98027.40
2019-05-18T13:06:17.163Z,98031.16
2019-05-18T13:07:25.833Z,98022.98
2019-05-18T13:08:33.822Z,98023.36
2019-05-18T13:09:42.628Z,98022.57
2019-05-18T13:10:50.792Z,98019.05
2019-05-18T13:12:01.080Z,98026.02
2019-05-18T13:13:08.946Z,98018.36
2019-05-18T13:14:17.783Z,98016.95
2019-05-18T13:15:26.188Z,98010.18
2019-05-18T13:16:34.876Z,98009.36
2019-05-18T13:17:42.926Z,98016.63
2019-05-18T13:18:51.807Z,98016.91
2019-05-18T13:20:00.046Z,98010.71
2019-05-18T13:21:08.977Z,98015.45
2019-05-18T13:22:17.027Z,98016.17
2019-05-18T13:23:25.894Z,98005.80
2019-05-18T13:24:44.735Z,97999.83
2019-05-18T13:25:44.483Z,98005.95
2019-05-18T13:26:52.585Z,98005.76